Lima, OH

11:36 PM EST on November 22, 2014 (GMT -0500)
West side Lima OH | Change Station
CLOSE
Current Station
Personal Weather Station
Location: Lima, OH
Elevation: 870 ft
Nearby Weather Stations

Elev 870 ft 40.75 °N, 84.13 °W | Updated 8 minutes ago

Overcast
Overcast
54.7 °F
Feels Like 54.7 °F
N
6.0
Wind Variable Wind from SW
Gusts 17.0 mph

Today
High -- | Low -- °F
--% Chance of Precip.
Yesterday
High -- | Low -- °F
Precip. -- in
7:31 AM 5:13 PM
New Moon, 1% visible
Pressure 30.01 in
Visibility 10.0 miles
Clouds Overcast 3800 ft
Dew Point 42 °F
Humidity 63%
Rainfall 0.06 in
Snow Depth Not available.
UV 0 out of 12
Pollen .10 out of 12
Air Quality Not available.
Flu Activity Not available.
METAR KAOH 230353Z AUTO 20011KT 10SM OVC038 11/03 A3000 RMK AO2 SLP163 T01110028

More Conditions Fewer Conditions

Pressure 30.01 in
Visibility 10.0 miles
Clouds Overcast 3800 ft
Dew Point 42 °F
Humidity 63%
Rainfall 0.06 in
Snow Depth Not available.
UV 0 out of 12
Pollen .10 out of 12
Air Quality Not available.
Flu Activity Not available.
METAR KAOH 230353Z AUTO 20011KT 10SM OVC038 11/03 A3000 RMK AO2 SLP163 T01110028

More Conditions Fewer Conditions

10-Day Weather Forecast

Almanac

Astronomy

Nov. 22, 2014 Rise Set
Actual Time
Civil Twilight
Nautical Twilight
Astronomical Twilight
Moon
Length of Visible Light
Length of Day
Tomorrow will be .
, % of the Moon is Illuminated

Today's Extremes

State Highs State Lows

Community

WunderPhotos

Upload Photos

1,773,002 photos uploaded!

WunderBlogs® & News

Nearby

Air Quality

  Air Quality AQ Index Pollutant
Not available.

Snow Depth

Station Depth Elevation

Earthquake Activity

City Distance Mag. Time & Date
Minimum magnitude displayed is 2.5.

Coastal Water Temperatures

Place Temperature

Nearby Weather Stations